sensor_id;sensor_type;location;lat;lon;timestamp;P1;durP1;ratioP1;P2;durP2;ratioP2
24159;SDS011;62385;41.594;23.808;2022-10-17T00:01:04;3.40;;;1.67;;
24159;SDS011;62385;41.594;23.808;2022-10-17T00:03:30;1.13;;;0.77;;
24159;SDS011;62385;41.594;23.808;2022-10-17T00:05:56;0.97;;;0.87;;
24159;SDS011;62385;41.594;23.808;2022-10-17T00:08:22;1.77;;;1.10;;
24159;SDS011;62385;41.594;23.808;2022-10-17T00:10:55;1.63;;;1.23;;
24159;SDS011;62385;41.594;23.808;2022-10-17T00:13:22;0.30;;;0.20;;
24159;SDS011;62385;41.594;23.808;2022-10-17T00:15:48;0.97;;;0.83;;
24159;SDS011;62385;41.594;23.808;2022-10-17T00:18:14;3.23;;;1.80;;
24159;SDS011;62385;41.594;23.808;2022-10-17T00:20:39;1.20;;;1.00;;
24159;SDS011;62385;41.594;23.808;2022-10-17T00:23:05;0.60;;;0.43;;
24159;SDS011;62385;41.594;23.808;2022-10-17T00:25:31;3.30;;;0.87;;
24159;SDS011;62385;41.594;23.808;2022-10-17T00:27:58;1.37;;;0.80;;
24159;SDS011;62385;41.594;23.808;2022-10-17T00:30:23;0.93;;;0.57;;
24159;SDS011;62385;41.594;23.808;2022-10-17T00:32:49;1.87;;;1.20;;
24159;SDS011;62385;41.594;23.808;2022-10-17T00:35:15;0.40;;;0.40;;
24159;SDS011;62385;41.594;23.808;2022-10-17T00:37:40;1.27;;;0.87;;
24159;SDS011;62385;41.594;23.808;2022-10-17T00:40:06;1.13;;;0.73;;
24159;SDS011;62385;41.594;23.808;2022-10-17T00:42:33;1.90;;;1.03;;
24159;SDS011;62385;41.594;23.808;2022-10-17T00:45:00;3.13;;;2.20;;
24159;SDS011;62385;41.594;23.808;2022-10-17T00:47:34;5.33;;;1.97;;
24159;SDS011;62385;41.594;23.808;2022-10-17T00:50:00;2.57;;;1.47;;
24159;SDS011;62385;41.594;23.808;2022-10-17T00:52:27;0.90;;;0.87;;
24159;SDS011;62385;41.594;23.808;2022-10-17T00:54:57;1.53;;;1.20;;
24159;SDS011;62385;41.594;23.808;2022-10-17T00:57:26;1.27;;;1.17;;
24159;SDS011;62385;41.594;23.808;2022-10-17T00:59:55;3.23;;;1.10;;
24159;SDS011;62385;41.594;23.808;2022-10-17T01:02:21;1.37;;;0.83;;
24159;SDS011;62385;41.594;23.808;2022-10-17T01:04:49;0.43;;;0.43;;
24159;SDS011;62385;41.594;23.808;2022-10-17T01:07:34;1.77;;;0.77;;
24159;SDS011;62385;41.594;23.808;2022-10-17T01:10:00;0.73;;;0.70;;
24159;SDS011;62385;41.594;23.808;2022-10-17T01:12:38;1.50;;;0.77;;
24159;SDS011;62385;41.594;23.808;2022-10-17T01:18:09;1.87;;;0.60;;
24159;SDS011;62385;41.594;23.808;2022-10-17T01:23:28;0.77;;;0.63;;
24159;SDS011;62385;41.594;23.808;2022-10-17T01:31:31;1.17;;;0.80;;
24159;SDS011;62385;41.594;23.808;2022-10-17T01:34:02;1.50;;;1.00;;
24159;SDS011;62385;41.594;23.808;2022-10-17T01:36:52;3.03;;;1.10;;
24159;SDS011;62385;41.594;23.808;2022-10-17T01:39:57;1.10;;;1.00;;
24159;SDS011;62385;41.594;23.808;2022-10-17T01:45:02;1.93;;;1.57;;
24159;SDS011;62385;41.594;23.808;2022-10-17T01:47:32;2.07;;;1.70;;
24159;SDS011;62385;41.594;23.808;2022-10-17T01:50:02;2.57;;;1.73;;
24159;SDS011;62385;41.594;23.808;2022-10-17T01:52:36;1.53;;;1.13;;
24159;SDS011;62385;41.594;23.808;2022-10-17T01:55:24;0.50;;;0.50;;
24159;SDS011;62385;41.594;23.808;2022-10-17T01:58:09;1.93;;;1.23;;
24159;SDS011;62385;41.594;23.808;2022-10-17T02:00:45;1.40;;;0.93;;
24159;SDS011;62385;41.594;23.808;2022-10-17T02:03:12;2.30;;;1.20;;
24159;SDS011;62385;41.594;23.808;2022-10-17T02:05:42;2.43;;;1.53;;
24159;SDS011;62385;41.594;23.808;2022-10-17T02:08:08;1.97;;;1.77;;
24159;SDS011;62385;41.594;23.808;2022-10-17T02:10:37;1.07;;;0.93;;
24159;SDS011;62385;41.594;23.808;2022-10-17T02:13:14;0.93;;;0.87;;
24159;SDS011;62385;41.594;23.808;2022-10-17T02:21:18;3.50;;;1.10;;
24159;SDS011;62385;41.594;23.808;2022-10-17T02:23:51;0.47;;;0.47;;
24159;SDS011;62385;41.594;23.808;2022-10-17T02:26:22;1.50;;;1.07;;
24159;SDS011;62385;41.594;23.808;2022-10-17T02:31:39;1.67;;;0.50;;
24159;SDS011;62385;41.594;23.808;2022-10-17T02:34:09;0.47;;;0.43;;
24159;SDS011;62385;41.594;23.808;2022-10-17T02:36:39;0.30;;;0.30;;
24159;SDS011;62385;41.594;23.808;2022-10-17T02:39:10;0.80;;;0.80;;
24159;SDS011;62385;41.594;23.808;2022-10-17T02:41:36;3.07;;;1.77;;
24159;SDS011;62385;41.594;23.808;2022-10-17T02:44:03;0.27;;;0.27;;
24159;SDS011;62385;41.594;23.808;2022-10-17T02:46:29;1.47;;;1.10;;
24159;SDS011;62385;41.594;23.808;2022-10-17T02:48:57;2.53;;;1.57;;
24159;SDS011;62385;41.594;23.808;2022-10-17T03:00:05;10.73;;;8.00;;
24159;SDS011;62385;41.594;23.808;2022-10-17T03:02:40;15.07;;;11.13;;
24159;SDS011;62385;41.594;23.808;2022-10-17T03:05:08;3.70;;;3.00;;
24159;SDS011;62385;41.594;23.808;2022-10-17T03:07:36;2.33;;;2.13;;
24159;SDS011;62385;41.594;23.808;2022-10-17T03:10:02;6.63;;;1.27;;
24159;SDS011;62385;41.594;23.808;2022-10-17T03:12:28;0.83;;;0.83;;
24159;SDS011;62385;41.594;23.808;2022-10-17T03:14:54;1.03;;;0.90;;
24159;SDS011;62385;41.594;23.808;2022-10-17T03:17:19;1.07;;;0.77;;
24159;SDS011;62385;41.594;23.808;2022-10-17T03:19:45;0.40;;;0.40;;
24159;SDS011;62385;41.594;23.808;2022-10-17T03:22:10;0.40;;;0.40;;
24159;SDS011;62385;41.594;23.808;2022-10-17T03:24:38;1.20;;;0.70;;
24159;SDS011;62385;41.594;23.808;2022-10-17T03:27:04;0.87;;;0.80;;
24159;SDS011;62385;41.594;23.808;2022-10-17T03:29:30;1.50;;;1.17;;
24159;SDS011;62385;41.594;23.808;2022-10-17T03:31:55;1.60;;;0.70;;
24159;SDS011;62385;41.594;23.808;2022-10-17T03:34:21;0.80;;;0.70;;
24159;SDS011;62385;41.594;23.808;2022-10-17T03:36:47;1.60;;;0.97;;
24159;SDS011;62385;41.594;23.808;2022-10-17T03:39:13;0.50;;;0.47;;
24159;SDS011;62385;41.594;23.808;2022-10-17T03:41:39;0.53;;;0.37;;
24159;SDS011;62385;41.594;23.808;2022-10-17T03:44:04;4.20;;;0.67;;
24159;SDS011;62385;41.594;23.808;2022-10-17T03:46:30;1.73;;;0.93;;
24159;SDS011;62385;41.594;23.808;2022-10-17T03:48:59;1.10;;;0.73;;
24159;SDS011;62385;41.594;23.808;2022-10-17T03:51:24;1.23;;;0.70;;
24159;SDS011;62385;41.594;23.808;2022-10-17T03:54:09;1.00;;;0.90;;
24159;SDS011;62385;41.594;23.808;2022-10-17T03:56:34;0.87;;;0.83;;
24159;SDS011;62385;41.594;23.808;2022-10-17T03:59:09;1.00;;;0.80;;
24159;SDS011;62385;41.594;23.808;2022-10-17T04:01:41;1.37;;;0.93;;
24159;SDS011;62385;41.594;23.808;2022-10-17T04:04:08;1.60;;;1.07;;
24159;SDS011;62385;41.594;23.808;2022-10-17T04:06:35;0.73;;;0.43;;
24159;SDS011;62385;41.594;23.808;2022-10-17T04:09:01;1.10;;;0.90;;
24159;SDS011;62385;41.594;23.808;2022-10-17T04:11:41;0.90;;;0.60;;
24159;SDS011;62385;41.594;23.808;2022-10-17T04:14:06;0.40;;;0.40;;
24159;SDS011;62385;41.594;23.808;2022-10-17T04:16:32;0.23;;;0.17;;
24159;SDS011;62385;41.594;23.808;2022-10-17T04:19:06;1.53;;;1.27;;
24159;SDS011;62385;41.594;23.808;2022-10-17T04:21:39;0.93;;;0.60;;
24159;SDS011;62385;41.594;23.808;2022-10-17T04:24:08;1.67;;;0.60;;
24159;SDS011;62385;41.594;23.808;2022-10-17T04:26:49;0.50;;;0.50;;
24159;SDS011;62385;41.594;23.808;2022-10-17T04:29:34;1.90;;;1.10;;
24159;SDS011;62385;41.594;23.808;2022-10-17T04:32:08;1.40;;;1.30;;
24159;SDS011;62385;41.594;23.808;2022-10-17T04:34:40;5.00;;;2.70;;
24159;SDS011;62385;41.594;23.808;2022-10-17T04:37:06;12.53;;;7.10;;
24159;SDS011;62385;41.594;23.808;2022-10-17T04:39:32;2.60;;;1.47;;
24159;SDS011;62385;41.594;23.808;2022-10-17T04:41:58;0.93;;;0.73;;
24159;SDS011;62385;41.594;23.808;2022-10-17T04:44:23;3.43;;;1.17;;
24159;SDS011;62385;41.594;23.808;2022-10-17T04:46:50;5.90;;;4.17;;
24159;SDS011;62385;41.594;23.808;2022-10-17T04:49:16;2.37;;;1.53;;
24159;SDS011;62385;41.594;23.808;2022-10-17T04:51:45;1.50;;;1.13;;
24159;SDS011;62385;41.594;23.808;2022-10-17T04:54:20;2.37;;;2.17;;
24159;SDS011;62385;41.594;23.808;2022-10-17T04:56:52;2.20;;;1.90;;
24159;SDS011;62385;41.594;23.808;2022-10-17T04:59:18;1.17;;;1.10;;
24159;SDS011;62385;41.594;23.808;2022-10-17T05:01:47;7.30;;;2.37;;
24159;SDS011;62385;41.594;23.808;2022-10-17T05:04:13;4.33;;;2.30;;
24159;SDS011;62385;41.594;23.808;2022-10-17T05:06:39;4.30;;;3.30;;
24159;SDS011;62385;41.594;23.808;2022-10-17T05:09:30;4.27;;;2.60;;
24159;SDS011;62385;41.594;23.808;2022-10-17T05:11:56;2.17;;;1.97;;
24159;SDS011;62385;41.594;23.808;2022-10-17T05:14:22;4.80;;;2.13;;
24159;SDS011;62385;41.594;23.808;2022-10-17T05:16:47;3.23;;;1.50;;
24159;SDS011;62385;41.594;23.808;2022-10-17T05:19:13;3.70;;;1.17;;
24159;SDS011;62385;41.594;23.808;2022-10-17T05:21:43;2.43;;;2.23;;
24159;SDS011;62385;41.594;23.808;2022-10-17T05:24:11;4.10;;;2.33;;
24159;SDS011;62385;41.594;23.808;2022-10-17T05:26:38;4.80;;;1.43;;
24159;SDS011;62385;41.594;23.808;2022-10-17T05:29:05;3.13;;;2.30;;
24159;SDS011;62385;41.594;23.808;2022-10-17T05:31:33;16.87;;;2.63;;
24159;SDS011;62385;41.594;23.808;2022-10-17T05:34:02;2.37;;;2.17;;
24159;SDS011;62385;41.594;23.808;2022-10-17T05:36:31;2.27;;;1.37;;
24159;SDS011;62385;41.594;23.808;2022-10-17T05:38:58;3.33;;;2.17;;
24159;SDS011;62385;41.594;23.808;2022-10-17T05:41:24;3.53;;;3.10;;
24159;SDS011;62385;41.594;23.808;2022-10-17T05:43:50;8.03;;;3.47;;
24159;SDS011;62385;41.594;23.808;2022-10-17T05:46:20;9.17;;;4.90;;
24159;SDS011;62385;41.594;23.808;2022-10-17T05:48:45;6.97;;;2.97;;
24159;SDS011;62385;41.594;23.808;2022-10-17T05:51:12;5.43;;;4.23;;
24159;SDS011;62385;41.594;23.808;2022-10-17T05:53:39;7.63;;;4.03;;
24159;SDS011;62385;41.594;23.808;2022-10-17T05:56:10;3.27;;;2.97;;
24159;SDS011;62385;41.594;23.808;2022-10-17T05:58:43;6.20;;;4.23;;
24159;SDS011;62385;41.594;23.808;2022-10-17T06:01:19;6.17;;;3.40;;
24159;SDS011;62385;41.594;23.808;2022-10-17T06:03:46;5.33;;;2.87;;
24159;SDS011;62385;41.594;23.808;2022-10-17T06:06:12;7.20;;;3.83;;
24159;SDS011;62385;41.594;23.808;2022-10-17T06:08:42;9.10;;;3.63;;
24159;SDS011;62385;41.594;23.808;2022-10-17T06:11:12;4.67;;;2.70;;
24159;SDS011;62385;41.594;23.808;2022-10-17T06:13:38;5.77;;;3.23;;
24159;SDS011;62385;41.594;23.808;2022-10-17T06:16:09;4.33;;;2.87;;
24159;SDS011;62385;41.594;23.808;2022-10-17T06:18:35;5.40;;;3.40;;
24159;SDS011;62385;41.594;23.808;2022-10-17T06:21:05;9.03;;;3.00;;
24159;SDS011;62385;41.594;23.808;2022-10-17T06:23:33;9.03;;;2.33;;
24159;SDS011;62385;41.594;23.808;2022-10-17T06:26:06;2.13;;;1.53;;
24159;SDS011;62385;41.594;23.808;2022-10-17T06:28:32;2.53;;;1.17;;
24159;SDS011;62385;41.594;23.808;2022-10-17T06:30:58;2.83;;;1.63;;
24159;SDS011;62385;41.594;23.808;2022-10-17T06:33:23;3.63;;;1.90;;
24159;SDS011;62385;41.594;23.808;2022-10-17T06:35:50;1.47;;;1.27;;
24159;SDS011;62385;41.594;23.808;2022-10-17T06:38:16;2.50;;;1.47;;
24159;SDS011;62385;41.594;23.808;2022-10-17T06:40:42;4.40;;;2.27;;
24159;SDS011;62385;41.594;23.808;2022-10-17T06:43:08;6.07;;;3.63;;
24159;SDS011;62385;41.594;23.808;2022-10-17T06:45:50;2.40;;;2.03;;
24159;SDS011;62385;41.594;23.808;2022-10-17T06:48:24;3.53;;;2.23;;
24159;SDS011;62385;41.594;23.808;2022-10-17T06:51:05;2.30;;;2.10;;
24159;SDS011;62385;41.594;23.808;2022-10-17T06:53:43;4.33;;;1.80;;
24159;SDS011;62385;41.594;23.808;2022-10-17T06:56:25;3.17;;;2.10;;
24159;SDS011;62385;41.594;23.808;2022-10-17T06:59:09;2.73;;;1.80;;
24159;SDS011;62385;41.594;23.808;2022-10-17T07:01:37;8.70;;;1.47;;
24159;SDS011;62385;41.594;23.808;2022-10-17T07:04:03;5.07;;;1.73;;
24159;SDS011;62385;41.594;23.808;2022-10-17T07:06:30;1.50;;;1.37;;
24159;SDS011;62385;41.594;23.808;2022-10-17T07:08:59;1.83;;;1.63;;
24159;SDS011;62385;41.594;23.808;2022-10-17T07:11:27;3.97;;;1.87;;
24159;SDS011;62385;41.594;23.808;2022-10-17T07:13:53;2.27;;;1.83;;
24159;SDS011;62385;41.594;23.808;2022-10-17T07:16:20;2.20;;;1.40;;
24159;SDS011;62385;41.594;23.808;2022-10-17T07:18:50;1.80;;;1.07;;
24159;SDS011;62385;41.594;23.808;2022-10-17T07:21:16;3.90;;;2.20;;
24159;SDS011;62385;41.594;23.808;2022-10-17T07:23:42;2.90;;;1.37;;
24159;SDS011;62385;41.594;23.808;2022-10-17T07:26:09;1.50;;;1.40;;
24159;SDS011;62385;41.594;23.808;2022-10-17T07:28:38;1.97;;;1.40;;
24159;SDS011;62385;41.594;23.808;2022-10-17T07:31:17;0.63;;;0.53;;
24159;SDS011;62385;41.594;23.808;2022-10-17T07:34:04;2.27;;;1.47;;
24159;SDS011;62385;41.594;23.808;2022-10-17T07:36:31;4.73;;;1.60;;
24159;SDS011;62385;41.594;23.808;2022-10-17T07:38:58;3.60;;;1.23;;
24159;SDS011;62385;41.594;23.808;2022-10-17T07:41:24;2.23;;;0.93;;
24159;SDS011;62385;41.594;23.808;2022-10-17T07:43:50;0.93;;;0.90;;
24159;SDS011;62385;41.594;23.808;2022-10-17T07:46:20;2.97;;;1.27;;
24159;SDS011;62385;41.594;23.808;2022-10-17T07:48:45;2.08;;;1.52;;
24159;SDS011;62385;41.594;23.808;2022-10-17T07:51:11;2.05;;;1.35;;
24159;SDS011;62385;41.594;23.808;2022-10-17T07:53:37;3.45;;;2.55;;
24159;SDS011;62385;41.594;23.808;2022-10-17T07:56:07;1.27;;;1.00;;
24159;SDS011;62385;41.594;23.808;2022-10-17T07:58:34;3.20;;;1.13;;
24159;SDS011;62385;41.594;23.808;2022-10-17T08:01:03;0.52;;;0.50;;
24159;SDS011;62385;41.594;23.808;2022-10-17T08:03:31;3.75;;;1.77;;
24159;SDS011;62385;41.594;23.808;2022-10-17T08:05:57;2.10;;;0.90;;
24159;SDS011;62385;41.594;23.808;2022-10-17T08:08:23;2.95;;;1.63;;
24159;SDS011;62385;41.594;23.808;2022-10-17T08:10:49;1.83;;;1.02;;
24159;SDS011;62385;41.594;23.808;2022-10-17T08:13:15;3.80;;;1.42;;
24159;SDS011;62385;41.594;23.808;2022-10-17T08:15:41;1.52;;;0.85;;
24159;SDS011;62385;41.594;23.808;2022-10-17T08:18:07;1.92;;;1.15;;
24159;SDS011;62385;41.594;23.808;2022-10-17T08:20:33;9.15;;;1.20;;
24159;SDS011;62385;41.594;23.808;2022-10-17T08:22:59;1.80;;;1.55;;
24159;SDS011;62385;41.594;23.808;2022-10-17T08:25:25;1.77;;;1.17;;
24159;SDS011;62385;41.594;23.808;2022-10-17T08:27:51;2.97;;;1.15;;
24159;SDS011;62385;41.594;23.808;2022-10-17T08:30:17;2.42;;;1.20;;
24159;SDS011;62385;41.594;23.808;2022-10-17T08:32:43;2.17;;;1.13;;
24159;SDS011;62385;41.594;23.808;2022-10-17T08:35:09;1.33;;;0.82;;
24159;SDS011;62385;41.594;23.808;2022-10-17T08:37:35;4.45;;;1.30;;
24159;SDS011;62385;41.594;23.808;2022-10-17T08:40:00;1.75;;;1.30;;
24159;SDS011;62385;41.594;23.808;2022-10-17T08:56:20;0.57;;;0.57;;
24159;SDS011;62385;41.594;23.808;2022-10-17T08:58:48;3.92;;;2.10;;
24159;SDS011;62385;41.594;23.808;2022-10-17T09:06:17;1.05;;;0.93;;
24159;SDS011;62385;41.594;23.808;2022-10-17T09:08:57;0.88;;;0.88;;
24159;SDS011;62385;41.594;23.808;2022-10-17T09:16:54;3.80;;;0.85;;
24159;SDS011;62385;41.594;23.808;2022-10-17T09:19:44;2.45;;;1.40;;
24159;SDS011;62385;41.594;23.808;2022-10-17T09:22:20;0.88;;;0.77;;
24159;SDS011;62385;41.594;23.808;2022-10-17T09:24:52;2.20;;;1.13;;
24159;SDS011;62385;41.594;23.808;2022-10-17T09:27:24;3.97;;;1.30;;
24159;SDS011;62385;41.594;23.808;2022-10-17T09:30:09;1.10;;;1.00;;
24159;SDS011;62385;41.594;23.808;2022-10-17T09:32:39;0.88;;;0.75;;
24159;SDS011;62385;41.594;23.808;2022-10-17T09:35:16;1.13;;;1.00;;
24159;SDS011;62385;41.594;23.808;2022-10-17T09:37:42;1.00;;;0.82;;
24159;SDS011;62385;41.594;23.808;2022-10-17T09:40:11;2.63;;;1.27;;
24159;SDS011;62385;41.594;23.808;2022-10-17T09:42:46;3.13;;;1.10;;
24159;SDS011;62385;41.594;23.808;2022-10-17T09:45:20;1.17;;;0.90;;
24159;SDS011;62385;41.594;23.808;2022-10-17T09:47:54;1.83;;;0.90;;
24159;SDS011;62385;41.594;23.808;2022-10-17T09:50:41;0.65;;;0.65;;
24159;SDS011;62385;41.594;23.808;2022-10-17T09:56:14;0.45;;;0.35;;
24159;SDS011;62385;41.594;23.808;2022-10-17T09:58:42;1.60;;;0.95;;
24159;SDS011;62385;41.594;23.808;2022-10-17T10:03:40;1.52;;;1.15;;
24159;SDS011;62385;41.594;23.808;2022-10-17T10:06:17;1.55;;;0.95;;
24159;SDS011;62385;41.594;23.808;2022-10-17T10:11:18;0.82;;;0.82;;
24159;SDS011;62385;41.594;23.808;2022-10-17T10:13:48;1.63;;;1.15;;
24159;SDS011;62385;41.594;23.808;2022-10-17T10:18:56;0.77;;;0.68;;
24159;SDS011;62385;41.594;23.808;2022-10-17T10:21:23;1.02;;;0.85;;
24159;SDS011;62385;41.594;23.808;2022-10-17T10:24:10;1.90;;;0.60;;
24159;SDS011;62385;41.594;23.808;2022-10-17T10:29:19;1.10;;;0.75;;
24159;SDS011;62385;41.594;23.808;2022-10-17T10:34:55;0.80;;;0.80;;
24159;SDS011;62385;41.594;23.808;2022-10-17T10:37:36;0.65;;;0.50;;
24159;SDS011;62385;41.594;23.808;2022-10-17T10:40:05;1.52;;;0.60;;
24159;SDS011;62385;41.594;23.808;2022-10-17T10:42:33;1.33;;;0.93;;
24159;SDS011;62385;41.594;23.808;2022-10-17T10:45:02;1.85;;;0.68;;
24159;SDS011;62385;41.594;23.808;2022-10-17T10:47:37;0.63;;;0.52;;
24159;SDS011;62385;41.594;23.808;2022-10-17T10:50:07;4.55;;;0.40;;
24159;SDS011;62385;41.594;23.808;2022-10-17T10:52:58;0.65;;;0.52;;
24159;SDS011;62385;41.594;23.808;2022-10-17T10:55:29;0.57;;;0.55;;
24159;SDS011;62385;41.594;23.808;2022-10-17T10:58:46;1.30;;;0.90;;
24159;SDS011;62385;41.594;23.808;2022-10-17T11:00:52;0.52;;;0.50;;
24159;SDS011;62385;41.594;23.808;2022-10-17T11:03:26;0.60;;;0.28;;
24159;SDS011;62385;41.594;23.808;2022-10-17T11:05:58;1.33;;;0.47;;
24159;SDS011;62385;41.594;23.808;2022-10-17T11:11:44;2.47;;;0.85;;
24159;SDS011;62385;41.594;23.808;2022-10-17T11:17:22;0.60;;;0.55;;
24159;SDS011;62385;41.594;23.808;2022-10-17T11:22:41;0.63;;;0.50;;
24159;SDS011;62385;41.594;23.808;2022-10-17T11:28:16;0.80;;;0.73;;
24159;SDS011;62385;41.594;23.808;2022-10-17T11:33:43;0.85;;;0.65;;
24159;SDS011;62385;41.594;23.808;2022-10-17T11:36:28;3.03;;;0.65;;
24159;SDS011;62385;41.594;23.808;2022-10-17T11:39:04;0.20;;;0.20;;
24159;SDS011;62385;41.594;23.808;2022-10-17T11:41:52;1.25;;;0.60;;
24159;SDS011;62385;41.594;23.808;2022-10-17T11:46:50;0.95;;;0.55;;
24159;SDS011;62385;41.594;23.808;2022-10-17T11:49:20;0.52;;;0.45;;
24159;SDS011;62385;41.594;23.808;2022-10-17T11:51:53;0.50;;;0.47;;
24159;SDS011;62385;41.594;23.808;2022-10-17T11:54:28;0.50;;;0.40;;
24159;SDS011;62385;41.594;23.808;2022-10-17T12:02:19;2.00;;;0.50;;
24159;SDS011;62385;41.594;23.808;2022-10-17T12:05:06;1.00;;;0.73;;
24159;SDS011;62385;41.594;23.808;2022-10-17T12:07:47;1.00;;;0.60;;
24159;SDS011;62385;41.594;23.808;2022-10-17T12:15:54;1.27;;;0.70;;
24159;SDS011;62385;41.594;23.808;2022-10-17T12:18:22;1.48;;;0.65;;
24159;SDS011;62385;41.594;23.808;2022-10-17T12:20:54;0.30;;;0.25;;
24159;SDS011;62385;41.594;23.808;2022-10-17T12:23:31;0.40;;;0.40;;
24159;SDS011;62385;41.594;23.808;2022-10-17T12:25:57;0.85;;;0.70;;
24159;SDS011;62385;41.594;23.808;2022-10-17T12:31:13;0.73;;;0.50;;
24159;SDS011;62385;41.594;23.808;2022-10-17T12:33:55;0.88;;;0.50;;
24159;SDS011;62385;41.594;23.808;2022-10-17T12:55:05;0.52;;;0.52;;
24159;SDS011;62385;41.594;23.808;2022-10-17T13:02:44;2.70;;;1.10;;
24159;SDS011;62385;41.594;23.808;2022-10-17T13:05:13;1.38;;;0.93;;
24159;SDS011;62385;41.594;23.808;2022-10-17T13:07:41;1.17;;;0.70;;
24159;SDS011;62385;41.594;23.808;2022-10-17T13:10:18;0.30;;;0.30;;
24159;SDS011;62385;41.594;23.808;2022-10-17T13:13:06;1.92;;;1.02;;
24159;SDS011;62385;41.594;23.808;2022-10-17T13:15:36;1.25;;;0.70;;
24159;SDS011;62385;41.594;23.808;2022-10-17T13:18:02;0.50;;;0.40;;
24159;SDS011;62385;41.594;23.808;2022-10-17T13:20:29;0.65;;;0.45;;
24159;SDS011;62385;41.594;23.808;2022-10-17T13:22:55;0.38;;;0.32;;
24159;SDS011;62385;41.594;23.808;2022-10-17T13:25:21;1.30;;;0.55;;
24159;SDS011;62385;41.594;23.808;2022-10-17T13:27:49;2.13;;;0.43;;
24159;SDS011;62385;41.594;23.808;2022-10-17T13:32:54;0.82;;;0.60;;
24159;SDS011;62385;41.594;23.808;2022-10-17T13:35:24;0.75;;;0.50;;
24159;SDS011;62385;41.594;23.808;2022-10-17T13:37:59;1.00;;;0.47;;
24159;SDS011;62385;41.594;23.808;2022-10-17T13:40:28;0.43;;;0.43;;
24159;SDS011;62385;41.594;23.808;2022-10-17T13:42:56;1.20;;;0.65;;
24159;SDS011;62385;41.594;23.808;2022-10-17T13:47:56;1.05;;;0.60;;
24159;SDS011;62385;41.594;23.808;2022-10-17T13:50:28;0.95;;;0.55;;
24159;SDS011;62385;41.594;23.808;2022-10-17T13:53:29;0.77;;;0.77;;
24159;SDS011;62385;41.594;23.808;2022-10-17T13:58:38;1.40;;;0.55;;
24159;SDS011;62385;41.594;23.808;2022-10-17T14:01:05;1.38;;;1.02;;
24159;SDS011;62385;41.594;23.808;2022-10-17T14:03:31;1.75;;;0.63;;
24159;SDS011;62385;41.594;23.808;2022-10-17T14:06:02;2.30;;;0.65;;
24159;SDS011;62385;41.594;23.808;2022-10-17T14:08:35;0.40;;;0.32;;
24159;SDS011;62385;41.594;23.808;2022-10-17T14:11:01;0.30;;;0.30;;
24159;SDS011;62385;41.594;23.808;2022-10-17T14:13:49;0.60;;;0.55;;
24159;SDS011;62385;41.594;23.808;2022-10-17T14:16:16;0.95;;;0.75;;
24159;SDS011;62385;41.594;23.808;2022-10-17T14:18:41;0.70;;;0.60;;
24159;SDS011;62385;41.594;23.808;2022-10-17T14:21:21;0.85;;;0.63;;
24159;SDS011;62385;41.594;23.808;2022-10-17T14:23:49;2.17;;;0.80;;
24159;SDS011;62385;41.594;23.808;2022-10-17T14:28:45;1.38;;;0.80;;
24159;SDS011;62385;41.594;23.808;2022-10-17T14:31:46;1.15;;;0.50;;
24159;SDS011;62385;41.594;23.808;2022-10-17T14:34:06;0.70;;;0.50;;
24159;SDS011;62385;41.594;23.808;2022-10-17T14:36:44;1.02;;;0.60;;
24159;SDS011;62385;41.594;23.808;2022-10-17T14:39:19;0.88;;;0.60;;
24159;SDS011;62385;41.594;23.808;2022-10-17T14:41:47;0.80;;;0.50;;
24159;SDS011;62385;41.594;23.808;2022-10-17T14:46:56;0.85;;;0.60;;
24159;SDS011;62385;41.594;23.808;2022-10-17T14:49:32;0.65;;;0.50;;
24159;SDS011;62385;41.594;23.808;2022-10-17T14:54:40;1.63;;;0.60;;
24159;SDS011;62385;41.594;23.808;2022-10-17T14:59:58;1.00;;;0.55;;
24159;SDS011;62385;41.594;23.808;2022-10-17T15:02:25;0.57;;;0.57;;
24159;SDS011;62385;41.594;23.808;2022-10-17T15:04:53;1.10;;;0.70;;
24159;SDS011;62385;41.594;23.808;2022-10-17T15:07:19;0.60;;;0.40;;
24159;SDS011;62385;41.594;23.808;2022-10-17T15:09:49;1.52;;;0.90;;
24159;SDS011;62385;41.594;23.808;2022-10-17T15:12:22;1.08;;;0.80;;
24159;SDS011;62385;41.594;23.808;2022-10-17T15:14:52;1.50;;;1.17;;
24159;SDS011;62385;41.594;23.808;2022-10-17T15:17:19;1.58;;;0.90;;
24159;SDS011;62385;41.594;23.808;2022-10-17T15:19:48;1.25;;;0.82;;
24159;SDS011;62385;41.594;23.808;2022-10-17T15:22:14;2.67;;;0.75;;
24159;SDS011;62385;41.594;23.808;2022-10-17T15:24:40;1.10;;;0.65;;
24159;SDS011;62385;41.594;23.808;2022-10-17T15:27:16;0.80;;;0.77;;
24159;SDS011;62385;41.594;23.808;2022-10-17T15:29:44;1.27;;;0.73;;
24159;SDS011;62385;41.594;23.808;2022-10-17T15:32:10;1.70;;;1.00;;
24159;SDS011;62385;41.594;23.808;2022-10-17T15:34:36;5.53;;;2.45;;
24159;SDS011;62385;41.594;23.808;2022-10-17T15:37:01;5.00;;;2.88;;
24159;SDS011;62385;41.594;23.808;2022-10-17T15:39:28;3.40;;;1.92;;
24159;SDS011;62385;41.594;23.808;2022-10-17T15:41:53;2.13;;;1.35;;
24159;SDS011;62385;41.594;23.808;2022-10-17T15:44:19;9.73;;;4.22;;
24159;SDS011;62385;41.594;23.808;2022-10-17T15:46:44;7.82;;;3.83;;
24159;SDS011;62385;41.594;23.808;2022-10-17T15:49:12;4.47;;;3.20;;
24159;SDS011;62385;41.594;23.808;2022-10-17T15:51:38;5.85;;;2.33;;
24159;SDS011;62385;41.594;23.808;2022-10-17T15:54:04;4.85;;;2.30;;
24159;SDS011;62385;41.594;23.808;2022-10-17T15:56:31;2.08;;;1.42;;
24159;SDS011;62385;41.594;23.808;2022-10-17T15:59:02;2.47;;;1.70;;
24159;SDS011;62385;41.594;23.808;2022-10-17T16:01:29;3.00;;;1.88;;
24159;SDS011;62385;41.594;23.808;2022-10-17T16:03:56;2.40;;;1.30;;
24159;SDS011;62385;41.594;23.808;2022-10-17T16:06:22;3.47;;;2.13;;
24159;SDS011;62385;41.594;23.808;2022-10-17T16:08:48;3.65;;;2.22;;
24159;SDS011;62385;41.594;23.808;2022-10-17T16:11:26;3.88;;;2.85;;
24159;SDS011;62385;41.594;23.808;2022-10-17T16:13:57;6.07;;;2.42;;
24159;SDS011;62385;41.594;23.808;2022-10-17T16:16:24;4.28;;;2.80;;
24159;SDS011;62385;41.594;23.808;2022-10-17T16:18:50;4.22;;;2.17;;
24159;SDS011;62385;41.594;23.808;2022-10-17T16:21:16;3.42;;;2.28;;
24159;SDS011;62385;41.594;23.808;2022-10-17T16:23:43;13.13;;;6.47;;
24159;SDS011;62385;41.594;23.808;2022-10-17T16:26:09;18.75;;;10.32;;
24159;SDS011;62385;41.594;23.808;2022-10-17T16:28:38;11.10;;;6.50;;
24159;SDS011;62385;41.594;23.808;2022-10-17T16:31:09;5.63;;;3.35;;
24159;SDS011;62385;41.594;23.808;2022-10-17T16:33:43;8.15;;;4.32;;
24159;SDS011;62385;41.594;23.808;2022-10-17T16:36:09;4.60;;;2.33;;
24159;SDS011;62385;41.594;23.808;2022-10-17T16:38:35;6.13;;;3.05;;
24159;SDS011;62385;41.594;23.808;2022-10-17T16:41:00;3.65;;;2.78;;
24159;SDS011;62385;41.594;23.808;2022-10-17T16:43:26;9.38;;;5.13;;
24159;SDS011;62385;41.594;23.808;2022-10-17T16:45:51;6.68;;;4.10;;
24159;SDS011;62385;41.594;23.808;2022-10-17T16:48:17;6.18;;;4.22;;
24159;SDS011;62385;41.594;23.808;2022-10-17T16:50:42;9.00;;;5.50;;
24159;SDS011;62385;41.594;23.808;2022-10-17T16:53:09;10.05;;;5.03;;
24159;SDS011;62385;41.594;23.808;2022-10-17T16:55:35;3.28;;;2.35;;
24159;SDS011;62385;41.594;23.808;2022-10-17T16:58:01;6.70;;;3.50;;
24159;SDS011;62385;41.594;23.808;2022-10-17T17:00:27;7.43;;;3.90;;
24159;SDS011;62385;41.594;23.808;2022-10-17T17:02:52;5.38;;;4.10;;
24159;SDS011;62385;41.594;23.808;2022-10-17T17:05:19;11.65;;;5.07;;
24159;SDS011;62385;41.594;23.808;2022-10-17T17:07:45;10.95;;;4.20;;
24159;SDS011;62385;41.594;23.808;2022-10-17T17:10:12;8.77;;;4.60;;
24159;SDS011;62385;41.594;23.808;2022-10-17T17:12:38;6.60;;;4.35;;
24159;SDS011;62385;41.594;23.808;2022-10-17T17:15:04;7.88;;;3.33;;